createdAt,value
2018-11-11T00:00:46.127Z,11.50
2018-11-11T00:03:19.233Z,11.55
2018-11-11T00:05:48.719Z,11.58
2018-11-11T00:08:21.766Z,11.65
2018-11-11T00:10:53.163Z,11.64
2018-11-11T00:13:21.703Z,11.59
2018-11-11T00:15:50.703Z,11.54
2018-11-11T00:18:19.429Z,11.51
2018-11-11T00:20:47.917Z,11.47
2018-11-11T00:23:16.468Z,11.47
2018-11-11T00:25:45.805Z,11.56
2018-11-11T00:28:14.558Z,11.62
2018-11-11T00:30:43.117Z,11.55
2018-11-11T00:33:11.715Z,11.55
2018-11-11T00:35:40.263Z,11.53
2018-11-11T00:38:08.741Z,11.55
2018-11-11T00:40:37.466Z,11.53
2018-11-11T00:43:06.516Z,11.50
2018-11-11T00:45:35.075Z,11.48
2018-11-11T00:48:05.363Z,11.51
2018-11-11T00:50:34.012Z,11.55
2018-11-11T00:53:02.556Z,11.61
2018-11-11T00:55:35.590Z,11.51
2018-11-11T00:58:05.039Z,11.50
2018-11-11T01:00:33.567Z,11.53
2018-11-11T01:03:02.706Z,11.47
2018-11-11T01:05:31.481Z,11.44
2018-11-11T01:08:00.152Z,11.43
2018-11-11T01:10:29.528Z,11.35
2018-11-11T01:12:58.188Z,11.35
2018-11-11T01:15:27.127Z,11.32
2018-11-11T01:17:55.778Z,11.30
2018-11-11T01:20:25.102Z,11.31
2018-11-11T01:22:53.803Z,11.37
2018-11-11T01:25:22.349Z,11.38
2018-11-11T01:27:51.788Z,11.35
2018-11-11T01:30:20.316Z,11.37
2018-11-11T01:32:49.072Z,11.38
2018-11-11T01:35:17.989Z,11.38
2018-11-11T01:37:46.846Z,11.39
2018-11-11T01:40:16.113Z,11.41
2018-11-11T01:42:44.961Z,11.40
2018-11-11T01:45:19.137Z,11.35
2018-11-11T01:47:48.677Z,11.36
2018-11-11T01:50:18.492Z,11.31
2018-11-11T01:52:49.040Z,11.30
2018-11-11T01:55:20.374Z,11.33
2018-11-11T01:57:49.160Z,11.30
2018-11-11T02:00:18.810Z,11.36
2018-11-11T02:02:48.390Z,11.33
2018-11-11T02:05:17.172Z,11.31
2018-11-11T02:07:46.626Z,11.29
2018-11-11T02:10:15.510Z,11.31
2018-11-11T02:12:45.163Z,11.32
2018-11-11T02:15:15.386Z,11.23
2018-11-11T02:17:44.077Z,11.21
2018-11-11T02:20:15.044Z,11.25
2018-11-11T02:22:45.272Z,11.29
2018-11-11T02:25:14.175Z,11.31
2018-11-11T02:27:42.766Z,11.27
2018-11-11T02:30:13.936Z,11.37
2018-11-11T02:32:43.014Z,11.33
2018-11-11T02:35:12.620Z,11.41
2018-11-11T02:37:42.168Z,11.34
2018-11-11T02:40:12.611Z,11.25
2018-11-11T02:42:41.391Z,11.32
2018-11-11T02:45:17.905Z,11.36
2018-11-11T02:47:46.646Z,11.33
2018-11-11T02:50:16.475Z,11.32
2018-11-11T02:52:46.796Z,11.38
2018-11-11T02:55:15.805Z,11.35
2018-11-11T02:57:45.314Z,11.45
2018-11-11T03:00:16.017Z,11.50
2018-11-11T03:02:46.438Z,11.48
2018-11-11T03:05:16.013Z,11.49
2018-11-11T03:07:44.653Z,11.48
2018-11-11T03:10:14.600Z,11.50
2018-11-11T03:12:43.764Z,11.56
2018-11-11T03:15:14.149Z,11.55
2018-11-11T03:17:43.318Z,11.51
2018-11-11T03:20:12.950Z,11.58
2018-11-11T03:22:41.538Z,11.57
2018-11-11T03:25:11.901Z,11.61
2018-11-11T03:27:40.891Z,11.64
2018-11-11T03:30:11.211Z,11.73
2018-11-11T03:32:40.246Z,11.79
2018-11-11T03:35:10.614Z,11.79
2018-11-11T03:37:39.314Z,11.95
2018-11-11T03:40:14.040Z,11.96
2018-11-11T03:42:43.410Z,11.95
2018-11-11T03:45:15.152Z,11.99
2018-11-11T03:47:44.809Z,12.01
2018-11-11T03:50:13.551Z,12.02
2018-11-11T03:52:43.394Z,12.04
2018-11-11T03:55:12.427Z,12.07
2018-11-11T03:57:41.298Z,12.08
2018-11-11T04:00:13.636Z,12.11
2018-11-11T04:02:43.192Z,12.20
2018-11-11T04:05:13.667Z,12.14
2018-11-11T04:07:42.433Z,12.19
2018-11-11T04:10:14.526Z,12.17
2018-11-11T04:12:43.208Z,12.20
2018-11-11T04:15:13.950Z,12.15
2018-11-11T04:17:42.627Z,12.13
2018-11-11T04:20:13.420Z,12.11
2018-11-11T04:22:42.123Z,12.09
2018-11-11T04:25:11.569Z,12.05
2018-11-11T04:27:41.272Z,12.05
2018-11-11T04:30:10.961Z,12.07
2018-11-11T04:32:39.667Z,12.00
2018-11-11T04:35:08.327Z,12.00
2018-11-11T04:37:37.706Z,11.96
2018-11-11T04:40:08.322Z,11.95
2018-11-11T04:42:36.976Z,11.93
2018-11-11T04:45:06.903Z,11.89
2018-11-11T04:47:36.090Z,11.78
2018-11-11T04:50:05.852Z,11.70
2018-11-11T04:52:34.979Z,11.56
2018-11-11T04:55:03.661Z,11.57
2018-11-11T04:57:32.227Z,11.40
2018-11-11T05:00:01.175Z,11.34
2018-11-11T05:02:29.670Z,11.25
2018-11-11T05:04:58.242Z,11.30
2018-11-11T05:07:26.723Z,11.21
2018-11-11T05:09:55.279Z,11.20
2018-11-11T05:12:23.757Z,11.19
2018-11-11T05:14:52.762Z,11.20
2018-11-11T05:17:21.707Z,11.18
2018-11-11T05:19:50.969Z,11.27
2018-11-11T05:22:19.649Z,11.27
2018-11-11T05:24:48.137Z,11.32
2018-11-11T05:27:17.698Z,11.32
2018-11-11T05:29:46.259Z,11.35
2018-11-11T05:32:14.869Z,11.38
2018-11-11T05:34:43.593Z,11.42
2018-11-11T05:37:12.999Z,11.44
2018-11-11T05:39:42.307Z,11.38
2018-11-11T05:42:11.820Z,11.48
2018-11-11T05:44:40.492Z,11.51
2018-11-11T05:47:09.140Z,11.47
2018-11-11T05:49:37.616Z,11.45
2018-11-11T05:52:06.290Z,11.35
2018-11-11T05:54:34.870Z,11.39
2018-11-11T05:57:04.071Z,11.41
2018-11-11T05:59:32.756Z,11.30
2018-11-11T06:02:01.307Z,11.31
2018-11-11T06:04:30.115Z,11.29
2018-11-11T06:06:58.697Z,11.21
2018-11-11T06:09:27.272Z,11.26
2018-11-11T06:11:56.532Z,11.29
2018-11-11T06:14:25.301Z,11.33
2018-11-11T06:16:53.850Z,11.34
2018-11-11T06:19:22.454Z,11.29
2018-11-11T06:21:51.134Z,11.33
2018-11-11T06:24:19.669Z,11.46
2018-11-11T06:26:48.496Z,11.37
2018-11-11T06:29:17.608Z,11.47
2018-11-11T06:31:46.138Z,11.43
2018-11-11T06:34:14.921Z,11.30
2018-11-11T06:36:43.384Z,11.25
2018-11-11T06:39:13.230Z,11.07
2018-11-11T06:41:42.103Z,10.99
2018-11-11T06:44:10.724Z,11.01
2018-11-11T06:46:39.287Z,10.98
2018-11-11T06:49:07.995Z,11.01
2018-11-11T06:51:36.804Z,11.06
2018-11-11T06:54:06.004Z,11.12
2018-11-11T06:56:35.144Z,11.16
2018-11-11T06:59:03.714Z,11.21
2018-11-11T07:01:33.267Z,11.07
2018-11-11T07:04:03.064Z,10.97
2018-11-11T07:06:33.122Z,11.03
2018-11-11T07:09:01.580Z,10.97
2018-11-11T07:11:30.066Z,11.03
2018-11-11T07:13:58.679Z,11.05
2018-11-11T07:16:27.352Z,11.03
2018-11-11T07:18:55.994Z,11.11
2018-11-11T07:21:24.703Z,11.15
2018-11-11T07:23:53.324Z,11.15
2018-11-11T07:26:21.956Z,11.17
2018-11-11T07:28:50.775Z,11.18
2018-11-11T07:31:19.453Z,11.12
2018-11-11T07:33:48.054Z,11.22
2018-11-11T07:36:17.023Z,11.37
2018-11-11T07:38:46.263Z,11.50
2018-11-11T07:41:16.134Z,11.57
2018-11-11T07:43:45.569Z,11.66
2018-11-11T07:46:14.466Z,11.80
2018-11-11T07:48:44.797Z,11.87
2018-11-11T07:51:14.806Z,11.91
2018-11-11T07:53:44.899Z,11.99
2018-11-11T07:56:18.703Z,11.99
2018-11-11T07:58:48.639Z,11.95
2018-11-11T08:01:19.646Z,11.95
2018-11-11T08:03:48.972Z,11.95
2018-11-11T08:06:18.519Z,11.97
2018-11-11T08:08:47.245Z,11.94
2018-11-11T08:11:27.203Z,11.92
2018-11-11T08:13:56.962Z,11.88
2018-11-11T08:16:26.255Z,11.84
2018-11-11T08:18:55.123Z,11.78
2018-11-11T08:21:24.049Z,11.74
2018-11-11T08:23:53.968Z,11.74
2018-11-11T08:26:23.223Z,11.73
2018-11-11T08:28:57.072Z,11.74
2018-11-11T08:31:29.337Z,11.73
2018-11-11T08:36:08.281Z,11.79
2018-11-11T08:38:36.875Z,11.73
2018-11-11T08:41:06.054Z,11.74
2018-11-11T08:43:35.014Z,11.73
2018-11-11T08:46:04.950Z,11.77
2018-11-11T08:48:33.669Z,11.74
2018-11-11T08:51:03.224Z,11.80
2018-11-11T08:53:33.319Z,11.83
2018-11-11T08:56:01.911Z,11.85
2018-11-11T08:58:31.712Z,11.90
2018-11-11T09:01:00.266Z,12.04
2018-11-11T09:03:30.020Z,12.20
2018-11-11T09:05:59.451Z,12.35
2018-11-11T09:08:30.084Z,12.49
2018-11-11T09:11:01.162Z,12.61
2018-11-11T09:13:30.352Z,12.79
2018-11-11T09:15:58.870Z,12.92
2018-11-11T09:18:27.966Z,12.97
2018-11-11T09:20:56.603Z,13.01
2018-11-11T09:23:25.311Z,13.05
2018-11-11T09:25:54.902Z,13.08
2018-11-11T09:28:23.558Z,13.12
2018-11-11T09:30:52.246Z,13.22
2018-11-11T09:33:20.789Z,13.29
2018-11-11T09:35:51.109Z,13.35
2018-11-11T09:38:19.784Z,13.42
2018-11-11T09:40:49.842Z,13.49
2018-11-11T09:43:18.571Z,13.63
2018-11-11T09:45:47.918Z,13.78
2018-11-11T09:48:18.041Z,13.97
2018-11-11T09:50:46.767Z,14.18
2018-11-11T09:53:16.094Z,14.43
2018-11-11T09:55:45.263Z,14.62
2018-11-11T09:58:17.104Z,14.74
2018-11-11T10:00:49.821Z,14.80
2018-11-11T10:03:29.238Z,14.78
2018-11-11T10:06:05.865Z,14.84
2018-11-11T10:08:46.415Z,14.82
2018-11-11T10:11:29.064Z,14.80
2018-11-11T10:15:04.285Z,14.58
2018-11-11T10:17:43.695Z,14.69
2018-11-11T10:20:22.404Z,14.68
2018-11-11T10:22:56.529Z,14.71
2018-11-11T10:26:30.155Z,14.81
2018-11-11T10:29:04.023Z,14.97
2018-11-11T10:31:39.334Z,15.07
2018-11-11T10:34:13.030Z,15.26
2018-11-11T10:37:44.878Z,15.35
2018-11-11T10:40:33.451Z,15.35
2018-11-11T10:43:11.262Z,15.39
2018-11-11T10:45:51.725Z,15.46
2018-11-11T10:48:24.610Z,15.44
2018-11-11T10:50:56.573Z,15.54
2018-11-11T10:53:25.386Z,15.47
2018-11-11T10:55:55.218Z,15.58
2018-11-11T10:58:24.417Z,15.36
2018-11-11T11:00:58.272Z,15.43
2018-11-11T11:03:32.053Z,15.54
2018-11-11T11:06:01.988Z,15.59
2018-11-11T11:08:31.118Z,15.75
2018-11-11T11:10:59.880Z,15.86
2018-11-11T11:13:29.739Z,16.12
2018-11-11T11:15:59.135Z,16.53
2018-11-11T11:18:27.642Z,16.62
2018-11-11T11:20:56.368Z,16.71
2018-11-11T11:23:25.066Z,16.54
2018-11-11T11:25:53.640Z,16.81
2018-11-11T11:28:22.113Z,16.80
2018-11-11T11:30:50.607Z,16.93
2018-11-11T11:33:19.164Z,17.31
2018-11-11T11:35:47.682Z,17.42
2018-11-11T11:38:16.585Z,17.75
2018-11-11T11:40:45.487Z,17.78
2018-11-11T11:43:14.204Z,17.79
2018-11-11T11:45:43.640Z,17.88
2018-11-11T11:48:12.109Z,18.07
2018-11-11T11:50:41.363Z,18.07
2018-11-11T11:53:09.924Z,17.64
2018-11-11T11:55:38.475Z,17.64
2018-11-11T11:58:23.826Z,17.67
2018-11-11T12:00:53.126Z,17.54
2018-11-11T12:03:21.783Z,17.84
2018-11-11T12:05:50.453Z,17.94
2018-11-11T12:08:19.196Z,17.86
2018-11-11T12:10:47.820Z,17.75
2018-11-11T12:13:20.981Z,17.67
2018-11-11T12:15:49.749Z,17.55
2018-11-11T12:18:18.484Z,17.63
2018-11-11T12:20:47.615Z,17.53
2018-11-11T12:23:17.039Z,17.41
2018-11-11T12:25:45.627Z,17.48
2018-11-11T12:28:14.230Z,17.42
2018-11-11T12:30:42.951Z,17.43
2018-11-11T12:33:12.262Z,17.20
2018-11-11T12:35:40.971Z,17.14
2018-11-11T12:38:11.221Z,17.15
2018-11-11T12:40:40.628Z,17.25
2018-11-11T12:43:10.133Z,17.18
2018-11-11T12:45:39.312Z,17.17
2018-11-11T12:48:08.252Z,17.09
2018-11-11T12:50:36.855Z,17.11
2018-11-11T12:53:05.790Z,17.05
2018-11-11T12:55:34.584Z,17.09
2018-11-11T12:58:03.063Z,17.03
2018-11-11T13:00:31.796Z,16.92
2018-11-11T13:03:00.538Z,17.07
2018-11-11T13:05:31.322Z,17.08
2018-11-11T13:08:00.190Z,16.94
2018-11-11T13:10:28.868Z,17.06
2018-11-11T13:12:57.359Z,17.10
2018-11-11T13:15:27.069Z,16.99
2018-11-11T13:17:56.667Z,16.89
2018-11-11T13:20:26.743Z,16.88
2018-11-11T13:22:56.604Z,16.90
2018-11-11T13:25:25.307Z,16.90
2018-11-11T13:27:55.218Z,16.93
2018-11-11T13:30:23.972Z,16.92
2018-11-11T13:32:52.574Z,16.86
2018-11-11T13:35:21.368Z,16.72
2018-11-11T13:37:50.565Z,16.65
2018-11-11T13:40:20.517Z,16.65
2018-11-11T13:42:49.247Z,16.58
2018-11-11T13:45:21.262Z,16.52
2018-11-11T13:47:50.992Z,16.67
2018-11-11T13:50:23.056Z,16.71
2018-11-11T13:52:52.102Z,16.68
2018-11-11T13:55:22.594Z,16.76
2018-11-11T13:57:51.652Z,16.79
2018-11-11T14:00:22.730Z,16.82
2018-11-11T14:02:52.535Z,16.86
2018-11-11T14:05:22.248Z,16.93
2018-11-11T14:07:51.900Z,16.73
2018-11-11T14:10:20.583Z,16.75
2018-11-11T14:12:49.193Z,16.78
2018-11-11T14:15:20.629Z,16.67
2018-11-11T14:17:49.470Z,16.70
2018-11-11T14:20:19.400Z,16.73
2018-11-11T14:22:48.958Z,16.60
2018-11-11T14:25:21.382Z,16.48
2018-11-11T14:27:49.952Z,16.55
2018-11-11T14:30:19.928Z,16.48
2018-11-11T14:32:49.475Z,16.46
2018-11-11T14:35:17.993Z,16.37
2018-11-11T14:37:46.958Z,16.41
2018-11-11T14:40:17.838Z,16.40
2018-11-11T14:42:47.793Z,16.89
2018-11-11T14:45:17.342Z,18.65
2018-11-11T14:47:47.136Z,19.98
2018-11-11T14:50:17.042Z,20.10
2018-11-11T14:52:46.114Z,19.36
2018-11-11T14:55:18.199Z,18.93
2018-11-11T14:57:46.800Z,18.45
2018-11-11T15:00:18.158Z,17.69
2018-11-11T15:02:49.981Z,17.39
2018-11-11T15:05:19.050Z,17.17
2018-11-11T15:07:47.592Z,16.85
2018-11-11T15:10:16.319Z,16.68
2018-11-11T15:12:45.242Z,16.38
2018-11-11T15:15:17.117Z,16.30
2018-11-11T15:17:46.393Z,15.98
2018-11-11T15:20:15.981Z,15.86
2018-11-11T15:22:44.952Z,15.65
2018-11-11T15:25:15.778Z,15.50
2018-11-11T15:27:45.531Z,15.40
2018-11-11T15:30:18.997Z,15.22
2018-11-11T15:32:47.753Z,15.10
2018-11-11T15:35:17.093Z,15.01
2018-11-11T15:37:45.677Z,14.93
2018-11-11T15:40:15.902Z,14.82
2018-11-11T15:42:44.621Z,14.77
2018-11-11T15:45:15.758Z,14.68
2018-11-11T15:47:44.599Z,14.54
2018-11-11T15:50:15.607Z,14.47
2018-11-11T15:52:47.049Z,14.37
2018-11-11T15:55:16.911Z,14.27
2018-11-11T15:57:45.628Z,14.15
2018-11-11T16:00:16.548Z,14.04
2018-11-11T16:02:45.657Z,13.89
2018-11-11T16:05:15.257Z,13.83
2018-11-11T16:07:44.572Z,13.78
2018-11-11T16:10:14.815Z,13.75
2018-11-11T16:12:43.822Z,13.68
2018-11-11T16:15:15.668Z,13.64
2018-11-11T16:17:45.126Z,13.58
2018-11-11T16:20:15.399Z,13.52
2018-11-11T16:22:45.477Z,13.45
2018-11-11T16:25:14.128Z,13.40
2018-11-11T16:27:43.783Z,13.36
2018-11-11T16:30:18.787Z,13.31
2018-11-11T16:32:48.822Z,13.25
2018-11-11T16:35:18.459Z,13.23
2018-11-11T16:37:46.993Z,13.19
2018-11-11T16:40:17.566Z,13.17
2018-11-11T16:42:46.592Z,13.11
2018-11-11T16:45:16.814Z,13.06
2018-11-11T16:47:45.563Z,13.04
2018-11-11T16:50:16.018Z,13.02
2018-11-11T16:52:45.282Z,12.92
2018-11-11T16:55:15.015Z,12.95
2018-11-11T16:57:44.116Z,12.90
2018-11-11T17:00:18.396Z,12.86
2018-11-11T17:02:47.506Z,12.76
2018-11-11T17:05:26.810Z,12.77
2018-11-11T17:07:55.681Z,12.75
2018-11-11T17:10:27.996Z,12.74
2018-11-11T17:12:58.697Z,12.67
2018-11-11T17:15:28.433Z,12.69
2018-11-11T17:17:57.793Z,12.67
2018-11-11T17:20:29.173Z,12.59
2018-11-11T17:23:00.554Z,12.56
2018-11-11T17:25:30.213Z,12.56
2018-11-11T17:28:00.344Z,12.56
2018-11-11T17:30:30.489Z,12.55
2018-11-11T17:32:59.960Z,12.58
2018-11-11T17:35:29.140Z,12.57
2018-11-11T17:37:58.138Z,12.58
2018-11-11T17:40:28.865Z,12.56
2018-11-11T17:42:59.791Z,12.56
2018-11-11T17:45:28.829Z,12.55
2018-11-11T17:47:59.002Z,12.57
2018-11-11T17:50:29.739Z,12.53
2018-11-11T17:52:59.011Z,12.51
2018-11-11T17:55:28.767Z,12.53
2018-11-11T17:57:57.516Z,12.53
2018-11-11T18:00:27.377Z,12.55
2018-11-11T18:02:56.828Z,12.62
2018-11-11T18:05:27.622Z,12.59
2018-11-11T18:07:56.406Z,12.57
2018-11-11T18:10:25.675Z,12.54
2018-11-11T18:12:54.508Z,12.51
2018-11-11T18:15:26.390Z,12.46
2018-11-11T18:17:59.524Z,12.48
2018-11-11T18:20:30.153Z,12.53
2018-11-11T18:22:59.887Z,12.56
2018-11-11T18:25:28.762Z,12.60
2018-11-11T18:27:57.424Z,12.63
2018-11-11T18:30:29.695Z,12.65
2018-11-11T18:33:00.789Z,12.66
2018-11-11T18:35:29.802Z,12.64
2018-11-11T18:37:58.750Z,12.58
2018-11-11T18:40:28.524Z,12.60
2018-11-11T18:42:57.186Z,12.62
2018-11-11T18:45:26.908Z,12.58
2018-11-11T18:47:59.262Z,12.56
2018-11-11T18:50:30.412Z,12.58
2018-11-11T18:52:59.799Z,12.55
2018-11-11T18:55:28.552Z,12.54
2018-11-11T18:57:57.516Z,12.51
2018-11-11T19:00:27.980Z,12.50
2018-11-11T19:02:57.401Z,12.52
2018-11-11T19:05:27.033Z,12.51
2018-11-11T19:07:56.791Z,12.50
2018-11-11T19:10:27.426Z,12.50
2018-11-11T19:12:58.056Z,12.52
2018-11-11T19:15:27.131Z,12.51
2018-11-11T19:17:56.202Z,12.58
2018-11-11T19:20:25.904Z,12.60
2018-11-11T19:22:54.716Z,12.60
2018-11-11T19:25:25.568Z,12.60
2018-11-11T19:27:54.876Z,12.62
2018-11-11T19:30:24.877Z,12.64
2018-11-11T19:32:54.470Z,12.62
2018-11-11T19:35:23.715Z,12.64
2018-11-11T19:37:53.713Z,12.64
2018-11-11T19:40:23.906Z,12.68
2018-11-11T19:42:53.434Z,12.73
2018-11-11T19:45:24.043Z,12.71
2018-11-11T19:47:52.800Z,12.70
2018-11-11T19:50:22.966Z,12.65
2018-11-11T19:52:53.304Z,12.68
2018-11-11T19:55:22.759Z,12.71
2018-11-11T19:57:51.771Z,12.76
2018-11-11T20:00:22.954Z,12.80
2018-11-11T20:02:53.881Z,12.87
2018-11-11T20:05:22.842Z,12.94
2018-11-11T20:07:52.812Z,13.02
2018-11-11T20:10:22.463Z,13.16
2018-11-11T20:12:51.933Z,13.21
2018-11-11T20:15:29.003Z,13.22
2018-11-11T20:17:59.779Z,13.26
2018-11-11T20:20:33.445Z,13.30
2018-11-11T20:23:02.978Z,13.31
2018-11-11T20:25:31.742Z,13.42
2018-11-11T20:28:01.281Z,13.48
2018-11-11T20:30:31.961Z,13.59
2018-11-11T20:33:01.394Z,13.64
2018-11-11T20:35:31.911Z,13.69
2018-11-11T20:38:00.703Z,13.71
2018-11-11T20:40:30.901Z,13.72
2018-11-11T20:43:00.466Z,13.76
2018-11-11T20:45:32.278Z,13.74
2018-11-11T20:48:01.601Z,13.72
2018-11-11T20:50:31.930Z,13.76
2018-11-11T20:53:02.706Z,13.70
2018-11-11T20:55:32.153Z,13.74
2018-11-11T20:58:01.760Z,13.78
2018-11-11T21:00:32.886Z,13.79
2018-11-11T21:03:02.340Z,13.80
2018-11-11T21:05:35.163Z,13.81
2018-11-11T21:08:08.470Z,13.82
2018-11-11T21:10:40.185Z,13.81
2018-11-11T21:13:09.829Z,13.82
2018-11-11T21:15:40.274Z,13.88
2018-11-11T21:18:13.279Z,13.91
2018-11-11T21:20:43.900Z,13.91
2018-11-11T21:23:12.469Z,13.92
2018-11-11T21:25:41.392Z,13.92
2018-11-11T21:28:10.369Z,13.91
2018-11-11T21:30:42.393Z,13.91
2018-11-11T21:33:17.745Z,13.87
2018-11-11T21:35:50.201Z,13.82
2018-11-11T21:38:19.241Z,13.84
2018-11-11T21:40:47.747Z,13.72
2018-11-11T21:43:17.128Z,13.72
2018-11-11T21:45:45.830Z,13.63
2018-11-11T21:48:14.897Z,13.64
2018-11-11T21:50:48.002Z,13.66
2018-11-11T21:53:39.202Z,13.66
2018-11-11T21:56:08.896Z,13.66
2018-11-11T21:58:37.722Z,13.70
2018-11-11T22:01:07.274Z,13.87
2018-11-11T22:03:35.889Z,14.05
2018-11-11T22:06:07.765Z,14.07
2018-11-11T22:08:37.773Z,14.11
2018-11-11T22:11:08.972Z,14.13
2018-11-11T22:13:37.916Z,14.17
2018-11-11T22:16:09.794Z,14.14
2018-11-11T22:18:38.518Z,14.23
2018-11-11T22:21:08.364Z,14.23
2018-11-11T22:23:36.927Z,14.23
2018-11-11T22:26:05.646Z,14.20
2018-11-11T22:28:34.273Z,14.15
2018-11-11T22:31:03.209Z,14.10
2018-11-11T22:33:32.367Z,14.01
2018-11-11T22:36:01.107Z,13.96
2018-11-11T22:38:29.613Z,13.99
2018-11-11T22:40:58.469Z,14.02
2018-11-11T22:43:27.064Z,13.95
2018-11-11T22:45:55.567Z,13.98
2018-11-11T22:48:24.059Z,13.94
2018-11-11T22:50:52.598Z,13.99
2018-11-11T22:53:21.128Z,14.10
2018-11-11T22:55:49.651Z,14.14
2018-11-11T22:58:21.876Z,14.23
2018-11-11T23:00:56.883Z,14.19
2018-11-11T23:03:25.507Z,14.17
2018-11-11T23:05:56.485Z,14.14
2018-11-11T23:08:25.127Z,13.99
2018-11-11T23:10:59.184Z,13.91
2018-11-11T23:13:27.911Z,13.85
2018-11-11T23:15:57.089Z,13.87
2018-11-11T23:18:28.599Z,13.78
2018-11-11T23:20:57.252Z,13.72
2018-11-11T23:23:29.659Z,13.62
2018-11-11T23:26:00.600Z,13.53
2018-11-11T23:28:29.303Z,13.51
2018-11-11T23:30:58.360Z,13.51
2018-11-11T23:33:30.913Z,13.45
2018-11-11T23:36:04.847Z,13.42
2018-11-11T23:38:37.882Z,13.37
2018-11-11T23:41:07.529Z,13.36
2018-11-11T23:43:36.081Z,13.35
2018-11-11T23:46:04.771Z,13.28
2018-11-11T23:48:33.418Z,13.22
2018-11-11T23:51:02.061Z,13.23
2018-11-11T23:53:30.828Z,13.23
2018-11-11T23:56:00.157Z,13.28
2018-11-11T23:58:29.213Z,13.26
